Bradenton, Florida
Current Conditions -  °F | °C
As of 8:53 PM on Saturday 22 Nov 2014 (Local Time) from KSRQ Reporting Station
Overcast Overcast  
Wind Chill: 73°   Ceiling: 8500
Heat Index: 73°   Visibility: 10mi
Dew Point: 67°   Wind: 13mph
Humidity: 81%   Direction: 110°ESE
Pressure: 30.06"   Gusts: NA
Location:  27.5°N, 82.58°W
Report Text: KSRQ 230153Z 11011KT 10SM OVC085 23/19 A3006 RMK AO2 SLP178 T02280194
Loading
Personal Weather Stations






























Interactive Weather Map New forecast layout! Learn more

10-Day Weather Forecast

Advertisements
Track Severe Weather on mobile